Weather Models
Both GFS & NAM
00z 06z 12z 18z
24hr Precip
00z 06z 12z 18z
36hr Simulated radar
00z 06z 12z 18z
SKEWT Soundings
00z 12z
Current Conditions (Updated 11:25am on 6/25/18)
Temperature
 82°
2.72
82°  
71°  
0
10
20
30
40
50
60
70
80
90
100
Dew Point
59°
65°  
58°  
-20
-10
0
10
20
30
40
50
60
70
80
Heat Index
82°
82°  
73°  
30
40
50
60
70
80
90
100
110
120
130
Heat Index
Humidity
45%
71% 
44% 
0
10
20
30
40
50
60
70
80
90
100
Barometer
30.04
   Steady
30.04  
29.87  
28.00
28.30
28.60
28.90
29.20
29.50
29.80
30.10
30.40
30.70
31.00
Temperature
Dew Point
Humidity
Pressure
Wind
14mph
  N
Daily Rain
.00
.05
.10
.15
.20
.25
.30
.35
.40
.45
.50
Rain Today
 0.00" 
Month Rain
0.00
1.00
2.00
3.00
4.00
5.00
6.00
7.00
8.00
9.00
10.00
Month Rain
 5.78" 
Year Rain
0.00
5.00
10.00
15.00
20.00
25.00
30.00
35.00
40.00
45.00
50.00
Year Rain
 26.78" 
Sun & Moon Data
Sunrise 5:33am
Sunset 8:34pm
Moonrise 6:19pm
Moonset 3:54am
Moon % 92%
Other Rain Data
Past Hour 0.00 Past 24 Hours 0.00
Past 3 Hours 0.00 Past 7 Days 0.21
Past 6 Hours 0.00
Cloud Height
5850


Current Front Map
Current Satellite map
7 Day Forecast
NWS Forecast for Philadelphia PA
National Weather Service Forecast for: Philadelphia PA
Issued by: National Weather Service Philadelphia, PA
Updated: 9:59 am EDT Jun 25, 2018

Philadelphia
 
Today

Today: Mostly sunny, with a high near 84. North wind around 11 mph.
Mostly Sunny

Tonight

Tonight: Mostly clear, with a low around 61. North wind 7 to 9 mph.
Mostly Clear

Tuesday

Tuesday: Sunny, with a high near 82. Northeast wind around 7 mph becoming southeast in the afternoon.
Sunny

Tuesday
Night
Tuesday Night: Partly cloudy, with a low around 66. South wind 5 to 7 mph.
Partly Cloudy

Wednesday

Wednesday: A slight chance of showers after 9am.  Partly sunny, with a high near 84. South wind 5 to 11 mph, with gusts as high as 21 mph.  Chance of precipitation is 20%.
Slight Chance
Showers
Wednesday
Night
Wednesday Night: A slight chance of showers, then showers and thunderstorms likely after 9pm.  Mostly cloudy, with a low around 72. Chance of precipitation is 60%. New rainfall amounts between a quarter and half of an inch possible.
T-storms
Likely
Thursday

Thursday: Showers and thunderstorms likely, mainly before 7am.  Mostly cloudy, with a high near 87. Chance of precipitation is 60%.
T-storms
Likely
Thursday
Night
Thursday Night: A chance of showers and thunderstorms before 9pm.  Partly cloudy, with a low around 74. Chance of precipitation is 40%.
Chance
T-storms then
Partly Cloudy
Friday

Friday: Mostly sunny, with a high near 92.
Mostly Sunny

Hi 84 °F Lo 61 °F Hi 82 °F Lo 66 °F Hi 84 °F Lo 72 °F Hi 87 °F Lo 74 °F Hi 92 °F

 

Today
 
Mostly sunny, with a high near 84. North wind around 11 mph.
Tonight
 
Mostly clear, with a low around 61. North wind 7 to 9 mph.
Tuesday
 
Sunny, with a high near 82. Northeast wind around 7 mph becoming southeast in the afternoon.
Tuesday Night
 
Partly cloudy, with a low around 66. South wind 5 to 7 mph.
Wednesday
 
A slight chance of showers after 9am. Partly sunny, with a high near 84. South wind 5 to 11 mph, with gusts as high as 21 mph. Chance of precipitation is 20%.
Wednesday Night
 
A slight chance of showers, then showers and thunderstorms likely after 9pm. Mostly cloudy, with a low around 72. Chance of precipitation is 60%. New rainfall amounts between a quarter and half of an inch possible.
Thursday
 
Showers and thunderstorms likely, mainly before 7am. Mostly cloudy, with a high near 87. Chance of precipitation is 60%.
Thursday Night
 
A chance of showers and thunderstorms before 9pm. Partly cloudy, with a low around 74. Chance of precipitation is 40%.
Friday
 
Mostly sunny, with a high near 92.
Friday Night
 
Mostly clear, with a low around 75.
Saturday
 
Mostly sunny, with a high near 94.
Saturday Night
 
Mostly clear, with a low around 78.
Sunday
 
Sunny, with a high near 96.

 

Forecast from NOAA-NWS for Philadelphia PA.

Area Weather Current Conditions
Nearby METAR Reports

KPHL - Philadelphia, Pennsylvania
Updated: Mon, 25-Jun-2018 10:54am EDT
Partly Cloudy
Partly Cloudy
 Wind from NNW
Wind: NNW 15 mph , 24 km/h
Temperature: 75°F , 24°C
Dew Point: 59°F , 15°C
Humidity: 57%
Barometer: 30.04 inHg , 1017.3 hPa
Clouds: Partly Cloudy
Visibility: 10 miles , 16 km
Cloud details: Partly Cloudy 3400 ft
2018/06/25 14:54 KPHL 251454Z 33013KT 10SM SCT034 24/15 A3004 RMK AO2 SLP173 T02390150 53015
KMPO - Mt. Pocono, Pennsylvania
Updated: Mon, 25-Jun-2018 10:53am EDT
Partly Cloudy
Partly Cloudy
 Wind from NNW
Wind: NNW 15 mph , 24 km/h, Gust: 28 mph , 44 km/h
Temperature: 64°F , 18°C
Dew Point: 54°F , 12°C
Humidity: 68%
Barometer: 30.10 inHg , 1019.3 hPa
Clouds: Partly Cloudy
Visibility: 10 miles , 16 km
Cloud details: Partly Cloudy 2800 ft
2018/06/25 14:53 KMPO 251453Z AUTO 33013G24KT 10SM SCT028 18/12 A3010 RMK AO2 SLP186 T01830122 51023
 
KACY - Atlantic City, New Jersey
Updated: Mon, 25-Jun-2018 10:54am EDT
Clear
Clear
 Wind from NNW
Wind: NNW 14 mph , 22 km/h
Temperature: 81°F , 27°C
Heat Index: 82°F , 28°C
Dew Point: 63°F , 17°C
Humidity: 54%
Barometer: 30.00 inHg , 1015.9 hPa
Clouds: Clear
Visibility: 10 miles , 16 km
2018/06/25 14:54 KACY 251454Z 34012KT 10SM CLR 27/17 A3000 RMK AO2 SLP158 T02720167 53012
KMIV - Millville, New Jersey
Updated: Mon, 25-Jun-2018 10:54am EDT
Clear
Clear
 Wind from NW
Wind: NW 12 mph , 19 km/h
Temperature: 79°F , 26°C
Dew Point: 61°F , 16°C
Humidity: 54%
Barometer: 30.02 inHg , 1016.6 hPa
Clouds: Clear
Visibility: 10 miles , 16 km
2018/06/25 14:54 KMIV 251454Z AUTO 32010KT 10SM CLR 26/16 A3002 RMK AO2 SLP162 T02560161 53010
 
KWWD - Wildwood, New Jersey
Updated: Mon, 25-Jun-2018 10:55am EDT
Clear
Clear
 Wind from NNW
Wind: NNW 10 mph , 17 km/h
Temperature: 75°F , 24°C
Dew Point: 63°F , 17°C
Humidity: 65%
Barometer: 30.03 inHg , 1016.9 hPa
Clouds: Clear
Visibility: 10 miles , 16 km
2018/06/25 14:55 KWWD 251455Z AUTO 34009KT 10SM CLR 24/17 A3003 RMK AO2 SLP170 T02440167 53012
KDOV - Dover Afb, Delaware
Updated: Mon, 25-Jun-2018 10:56am EDT
Partly Cloudy
Partly Cloudy
 Wind from NW
Wind: NW 10 mph , 17 km/h, Gust: 20 mph , 31 km/h
Temperature: 79°F , 26°C
Dew Point: 63°F , 17°C
Humidity: 58%
Barometer: 30.03 inHg , 1016.9 hPa
Clouds: Partly Cloudy
Visibility: 10 miles , 16 km
Cloud details: Few Clouds 5000 ft
Partly Cloudy 18000 ft
2018/06/25 14:56 KDOV 251456Z 31009G17KT 10SM FEW050 SCT180 26/17 A3003 RMK AO2A SLP172 T02560170 52013 $
Severe Weather Map
Recent Forum Post
[Philadelphia] 2017 -2018 Winter snow forecast by JC December 06, 2017, 02:00:35 AM
[Philadelphia] Request for Philly Snow Data by JC February 14, 2017, 08:42:21 PM
[Philadelphia] 2016 -2017 Winter snow forecast by JC December 01, 2016, 04:56:31 AM
[Philadelphia] Winter forecast 2016-2017 by xyonist November 30, 2016, 01:14:08 PM
[Philadelphia] 102.7 last Saturday by JC August 20, 2016, 03:26:22 AM
[Philadelphia] 2015 -2016 Winter snow forecast by JC April 19, 2016, 09:42:40 AM
[Philadelphia] Latest Models on Weekend Storm (Photos) by JC January 23, 2016, 12:01:03 PM
[Philadelphia] Possible large snow storm for end of week ? by JC January 21, 2016, 09:17:47 AM